sensor_id;sensor_type;location;lat;lon;timestamp;pressure;altitude;pressure_sealevel;temperature;humidity
23677;BME280;31493;49.058;12.190;2023-03-11T00:02:19;94442.84;;;1.79;79.45
23677;BME280;31493;49.058;12.190;2023-03-11T00:04:46;94457.97;;;1.82;78.69
23677;BME280;31493;49.058;12.190;2023-03-11T00:07:13;94468.63;;;1.75;77.62
23677;BME280;31493;49.058;12.190;2023-03-11T00:09:40;94463.97;;;1.67;77.51
23677;BME280;31493;49.058;12.190;2023-03-11T00:12:08;94482.47;;;1.71;79.26
23677;BME280;31493;49.058;12.190;2023-03-11T00:14:35;94477.66;;;1.66;77.75
23677;BME280;31493;49.058;12.190;2023-03-11T00:17:02;94495.19;;;1.56;77.87
23677;BME280;31493;49.058;12.190;2023-03-11T00:19:29;94467.41;;;1.52;80.18
23677;BME280;31493;49.058;12.190;2023-03-11T00:21:56;94497.09;;;1.53;79.11
23677;BME280;31493;49.058;12.190;2023-03-11T00:24:24;94489.03;;;1.60;78.30
23677;BME280;31493;49.058;12.190;2023-03-11T00:26:51;94501.09;;;1.43;78.37
23677;BME280;31493;49.058;12.190;2023-03-11T00:29:19;94505.53;;;1.39;78.83
23677;BME280;31493;49.058;12.190;2023-03-11T00:31:46;94511.22;;;1.44;78.37
23677;BME280;31493;49.058;12.190;2023-03-11T00:34:13;94503.91;;;1.38;77.84
23677;BME280;31493;49.058;12.190;2023-03-11T00:36:40;94496.25;;;1.38;78.34
23677;BME280;31493;49.058;12.190;2023-03-11T00:39:07;94505.28;;;1.44;78.87
23677;BME280;31493;49.058;12.190;2023-03-11T00:41:36;94512.28;;;1.40;78.73
23677;BME280;31493;49.058;12.190;2023-03-11T00:44:03;94518.00;;;1.29;79.12
23677;BME280;31493;49.058;12.190;2023-03-11T00:46:31;94536.41;;;1.34;79.52
23677;BME280;31493;49.058;12.190;2023-03-11T00:48:58;94531.63;;;1.28;79.68
23677;BME280;31493;49.058;12.190;2023-03-11T00:51:25;94529.94;;;1.29;76.85
23677;BME280;31493;49.058;12.190;2023-03-11T00:53:52;94519.06;;;1.25;78.45
23677;BME280;31493;49.058;12.190;2023-03-11T00:56:19;94550.16;;;1.32;78.01
23677;BME280;31493;49.058;12.190;2023-03-11T00:58:46;94532.88;;;1.21;77.47
23677;BME280;31493;49.058;12.190;2023-03-11T01:01:16;94546.47;;;1.22;76.48
23677;BME280;31493;49.058;12.190;2023-03-11T01:03:45;94549.19;;;1.19;76.57
23677;BME280;31493;49.058;12.190;2023-03-11T01:06:12;94556.25;;;1.14;76.58
23677;BME280;31493;49.058;12.190;2023-03-11T01:08:40;94558.00;;;1.13;77.24
23677;BME280;31493;49.058;12.190;2023-03-11T01:11:07;94558.25;;;1.08;77.54
23677;BME280;31493;49.058;12.190;2023-03-11T01:13:35;94577.00;;;1.07;78.03
23677;BME280;31493;49.058;12.190;2023-03-11T01:16:02;94568.28;;;1.12;77.98
23677;BME280;31493;49.058;12.190;2023-03-11T01:18:29;94569.00;;;1.14;77.83
23677;BME280;31493;49.058;12.190;2023-03-11T01:20:58;94560.63;;;1.12;76.43
23677;BME280;31493;49.058;12.190;2023-03-11T01:23:25;94571.16;;;1.05;75.72
23677;BME280;31493;49.058;12.190;2023-03-11T01:25:52;94535.63;;;1.02;75.70
23677;BME280;31493;49.058;12.190;2023-03-11T01:28:19;94565.59;;;0.99;75.97
23677;BME280;31493;49.058;12.190;2023-03-11T01:30:46;94574.97;;;0.98;75.21
23677;BME280;31493;49.058;12.190;2023-03-11T01:33:15;94598.84;;;0.96;77.26
23677;BME280;31493;49.058;12.190;2023-03-11T01:35:42;94570.88;;;1.10;76.75
23677;BME280;31493;49.058;12.190;2023-03-11T01:38:11;94600.25;;;1.01;74.74
23677;BME280;31493;49.058;12.190;2023-03-11T01:40:39;94595.75;;;1.06;75.76
23677;BME280;31493;49.058;12.190;2023-03-11T01:46:21;94576.66;;;0.98;76.35
23677;BME280;31493;49.058;12.190;2023-03-11T01:48:50;94577.06;;;0.90;76.51
23677;BME280;31493;49.058;12.190;2023-03-11T01:51:19;94599.44;;;1.01;75.41
23677;BME280;31493;49.058;12.190;2023-03-11T01:53:52;94620.88;;;0.97;77.16
23677;BME280;31493;49.058;12.190;2023-03-11T01:56:19;94590.81;;;0.88;76.91
23677;BME280;31493;49.058;12.190;2023-03-11T01:58:48;94610.53;;;0.84;76.79
23677;BME280;31493;49.058;12.190;2023-03-11T02:01:18;94595.25;;;0.84;76.91
23677;BME280;31493;49.058;12.190;2023-03-11T02:03:45;94608.47;;;0.75;78.02
23677;BME280;31493;49.058;12.190;2023-03-11T02:06:15;94605.94;;;0.91;78.30
23677;BME280;31493;49.058;12.190;2023-03-11T02:08:42;94601.75;;;0.74;78.57
23677;BME280;31493;49.058;12.190;2023-03-11T02:11:14;94631.13;;;0.79;78.86
23677;BME280;31493;49.058;12.190;2023-03-11T02:13:43;94631.22;;;0.78;80.58
23677;BME280;31493;49.058;12.190;2023-03-11T02:16:11;94617.75;;;0.76;79.47
23677;BME280;31493;49.058;12.190;2023-03-11T02:18:39;94634.31;;;0.67;80.12
23677;BME280;31493;49.058;12.190;2023-03-11T02:21:15;94638.53;;;0.68;80.06
23677;BME280;31493;49.058;12.190;2023-03-11T02:23:51;94630.72;;;0.71;80.68
23677;BME280;31493;49.058;12.190;2023-03-11T02:26:25;94621.59;;;0.67;81.25
23677;BME280;31493;49.058;12.190;2023-03-11T02:28:57;94615.34;;;0.73;80.21
23677;BME280;31493;49.058;12.190;2023-03-11T02:31:24;94637.97;;;0.79;77.25
23677;BME280;31493;49.058;12.190;2023-03-11T02:33:53;94614.53;;;0.72;78.86
23677;BME280;31493;49.058;12.190;2023-03-11T02:36:31;94633.78;;;0.78;80.01
23677;BME280;31493;49.058;12.190;2023-03-11T02:38:59;94630.09;;;0.68;80.15
23677;BME280;31493;49.058;12.190;2023-03-11T02:41:26;94637.78;;;0.66;81.26
23677;BME280;31493;49.058;12.190;2023-03-11T02:43:54;94649.19;;;0.59;80.93
23677;BME280;31493;49.058;12.190;2023-03-11T02:46:23;94653.38;;;0.60;82.44
23677;BME280;31493;49.058;12.190;2023-03-11T02:48:52;94637.28;;;0.60;82.25
23677;BME280;31493;49.058;12.190;2023-03-11T02:51:20;94648.47;;;0.57;83.38
23677;BME280;31493;49.058;12.190;2023-03-11T02:53:48;94641.72;;;0.56;81.87
23677;BME280;31493;49.058;12.190;2023-03-11T02:56:16;94637.69;;;0.52;81.56
23677;BME280;31493;49.058;12.190;2023-03-11T02:58:43;94641.97;;;0.51;81.62
23677;BME280;31493;49.058;12.190;2023-03-11T03:01:10;94652.97;;;0.52;81.34
23677;BME280;31493;49.058;12.190;2023-03-11T03:03:39;94659.28;;;0.45;83.01
23677;BME280;31493;49.058;12.190;2023-03-11T03:06:06;94668.47;;;0.47;81.75
23677;BME280;31493;49.058;12.190;2023-03-11T03:08:33;94677.69;;;0.50;82.55
23677;BME280;31493;49.058;12.190;2023-03-11T03:11:00;94673.56;;;0.30;83.92
23677;BME280;31493;49.058;12.190;2023-03-11T03:13:28;94677.31;;;0.40;84.17
23677;BME280;31493;49.058;12.190;2023-03-11T03:15:55;94689.06;;;0.43;85.60
23677;BME280;31493;49.058;12.190;2023-03-11T03:18:22;94688.25;;;0.42;85.46
23677;BME280;31493;49.058;12.190;2023-03-11T03:20:51;94701.06;;;0.41;84.62
23677;BME280;31493;49.058;12.190;2023-03-11T03:23:18;94695.75;;;0.45;86.24
23677;BME280;31493;49.058;12.190;2023-03-11T03:25:45;94701.88;;;0.41;86.88
23677;BME280;31493;49.058;12.190;2023-03-11T03:28:13;94700.53;;;0.34;86.08
23677;BME280;31493;49.058;12.190;2023-03-11T03:30:40;94697.91;;;0.36;87.17
23677;BME280;31493;49.058;12.190;2023-03-11T03:33:07;94695.22;;;0.39;87.77
23677;BME280;31493;49.058;12.190;2023-03-11T03:35:34;94701.06;;;0.41;89.14
23677;BME280;31493;49.058;12.190;2023-03-11T03:38:03;94708.19;;;0.34;88.79
23677;BME280;31493;49.058;12.190;2023-03-11T03:40:30;94703.69;;;0.39;88.43
23677;BME280;31493;49.058;12.190;2023-03-11T03:42:57;94707.28;;;0.35;88.65
23677;BME280;31493;49.058;12.190;2023-03-11T03:45:24;94714.25;;;0.32;88.73
23677;BME280;31493;49.058;12.190;2023-03-11T03:47:51;94711.63;;;0.33;89.03
23677;BME280;31493;49.058;12.190;2023-03-11T03:50:18;94716.84;;;0.30;88.02
23677;BME280;31493;49.058;12.190;2023-03-11T03:52:45;94705.63;;;0.34;88.77
23677;BME280;31493;49.058;12.190;2023-03-11T03:55:13;94712.44;;;0.34;89.50
23677;BME280;31493;49.058;12.190;2023-03-11T03:57:40;94725.19;;;0.34;88.82
23677;BME280;31493;49.058;12.190;2023-03-11T04:00:08;94717.91;;;0.26;88.94
23677;BME280;31493;49.058;12.190;2023-03-11T04:02:36;94717.09;;;0.25;89.31
23677;BME280;31493;49.058;12.190;2023-03-11T04:05:03;94728.16;;;0.24;89.75
23677;BME280;31493;49.058;12.190;2023-03-11T04:07:32;94735.75;;;0.26;89.41
23677;BME280;31493;49.058;12.190;2023-03-11T04:09:59;94717.31;;;0.21;89.25
23677;BME280;31493;49.058;12.190;2023-03-11T04:12:28;94736.84;;;0.20;89.42
23677;BME280;31493;49.058;12.190;2023-03-11T04:14:55;94736.84;;;0.20;90.11
23677;BME280;31493;49.058;12.190;2023-03-11T04:17:22;94738.09;;;0.12;89.83
23677;BME280;31493;49.058;12.190;2023-03-11T04:19:49;94734.69;;;0.13;90.59
23677;BME280;31493;49.058;12.190;2023-03-11T04:22:16;94731.59;;;0.06;89.87
23677;BME280;31493;49.058;12.190;2023-03-11T04:24:43;94742.53;;;0.08;90.99
23677;BME280;31493;49.058;12.190;2023-03-11T04:27:10;94744.31;;;0.06;91.90
23677;BME280;31493;49.058;12.190;2023-03-11T04:29:38;94742.75;;;0.04;90.83
23677;BME280;31493;49.058;12.190;2023-03-11T04:32:06;94747.91;;;0.02;90.99
23677;BME280;31493;49.058;12.190;2023-03-11T04:34:33;94770.22;;;-0.03;91.73
23677;BME280;31493;49.058;12.190;2023-03-11T04:37:00;94764.13;;;-0.01;92.73
23677;BME280;31493;49.058;12.190;2023-03-11T04:39:27;94770.09;;;0.00;92.57
23677;BME280;31493;49.058;12.190;2023-03-11T04:41:54;94773.78;;;-0.07;92.59
23677;BME280;31493;49.058;12.190;2023-03-11T04:44:21;94775.91;;;0.02;93.46
23677;BME280;31493;49.058;12.190;2023-03-11T04:46:50;94768.66;;;-0.06;93.93
23677;BME280;31493;49.058;12.190;2023-03-11T04:49:17;94774.22;;;-0.16;93.77
23677;BME280;31493;49.058;12.190;2023-03-11T04:51:44;94768.25;;;-0.15;94.09
23677;BME280;31493;49.058;12.190;2023-03-11T04:54:11;94778.84;;;-0.24;93.68
23677;BME280;31493;49.058;12.190;2023-03-11T04:56:38;94775.47;;;-0.25;94.30
23677;BME280;31493;49.058;12.190;2023-03-11T04:59:05;94785.06;;;-0.30;94.29
23677;BME280;31493;49.058;12.190;2023-03-11T05:01:32;94776.16;;;-0.21;95.80
23677;BME280;31493;49.058;12.190;2023-03-11T05:04:00;94796.25;;;-0.34;94.56
23677;BME280;31493;49.058;12.190;2023-03-11T05:06:28;94787.44;;;-0.27;93.46
23677;BME280;31493;49.058;12.190;2023-03-11T05:08:55;94787.06;;;-0.19;93.54
23677;BME280;31493;49.058;12.190;2023-03-11T05:11:22;94802.06;;;-0.32;93.73
23677;BME280;31493;49.058;12.190;2023-03-11T05:13:49;94806.84;;;-0.24;95.00
23677;BME280;31493;49.058;12.190;2023-03-11T05:16:16;94812.41;;;-0.35;94.63
23677;BME280;31493;49.058;12.190;2023-03-11T05:18:43;94816.44;;;-0.31;94.37
23677;BME280;31493;49.058;12.190;2023-03-11T05:21:11;94809.16;;;-0.39;94.61
23677;BME280;31493;49.058;12.190;2023-03-11T05:23:38;94827.78;;;-0.38;95.63
23677;BME280;31493;49.058;12.190;2023-03-11T05:26:05;94826.28;;;-0.42;95.89
23677;BME280;31493;49.058;12.190;2023-03-11T05:28:32;94842.28;;;-0.40;96.10
23677;BME280;31493;49.058;12.190;2023-03-11T05:30:59;94841.00;;;-0.49;94.44
23677;BME280;31493;49.058;12.190;2023-03-11T05:33:26;94833.22;;;-0.46;95.00
23677;BME280;31493;49.058;12.190;2023-03-11T05:36:03;94831.56;;;-0.47;97.08
23677;BME280;31493;49.058;12.190;2023-03-11T05:38:31;94843.59;;;-0.50;95.91
23677;BME280;31493;49.058;12.190;2023-03-11T05:40:58;94840.28;;;-0.52;95.90
23677;BME280;31493;49.058;12.190;2023-03-11T05:43:25;94845.75;;;-0.62;95.84
23677;BME280;31493;49.058;12.190;2023-03-11T05:45:52;94841.38;;;-0.58;95.93
23677;BME280;31493;49.058;12.190;2023-03-11T05:48:19;94858.16;;;-0.54;96.75
23677;BME280;31493;49.058;12.190;2023-03-11T05:50:46;94860.06;;;-0.59;97.09
23677;BME280;31493;49.058;12.190;2023-03-11T05:53:14;94843.84;;;-0.57;97.31
23677;BME280;31493;49.058;12.190;2023-03-11T05:55:43;94844.94;;;-0.62;97.41
23677;BME280;31493;49.058;12.190;2023-03-11T05:58:10;94844.59;;;-0.73;97.84
23677;BME280;31493;49.058;12.190;2023-03-11T06:00:37;94848.09;;;-0.76;98.91
23677;BME280;31493;49.058;12.190;2023-03-11T06:03:04;94849.06;;;-0.78;98.88
23677;BME280;31493;49.058;12.190;2023-03-11T06:05:31;94845.00;;;-0.83;99.79
23677;BME280;31493;49.058;12.190;2023-03-11T06:07:58;94850.47;;;-0.92;100.00
23677;BME280;31493;49.058;12.190;2023-03-11T06:10:25;94866.41;;;-0.88;100.00
23677;BME280;31493;49.058;12.190;2023-03-11T06:12:53;94869.13;;;-0.93;100.00
23677;BME280;31493;49.058;12.190;2023-03-11T06:15:20;94869.19;;;-0.94;100.00
23677;BME280;31493;49.058;12.190;2023-03-11T06:17:47;94873.59;;;-0.98;100.00
23677;BME280;31493;49.058;12.190;2023-03-11T06:20:15;94866.03;;;-0.99;100.00
23677;BME280;31493;49.058;12.190;2023-03-11T06:22:42;94865.00;;;-0.95;100.00
23677;BME280;31493;49.058;12.190;2023-03-11T06:25:09;94870.44;;;-1.03;100.00
23677;BME280;31493;49.058;12.190;2023-03-11T06:27:37;94873.06;;;-1.06;100.00
23677;BME280;31493;49.058;12.190;2023-03-11T06:30:07;94877.25;;;-1.05;100.00
23677;BME280;31493;49.058;12.190;2023-03-11T06:32:34;94886.50;;;-1.02;100.00
23677;BME280;31493;49.058;12.190;2023-03-11T06:35:02;94889.22;;;-1.07;100.00
23677;BME280;31493;49.058;12.190;2023-03-11T06:37:29;94897.47;;;-1.02;100.00
23677;BME280;31493;49.058;12.190;2023-03-11T06:39:56;94912.56;;;-0.99;100.00
23677;BME280;31493;49.058;12.190;2023-03-11T06:42:23;94904.66;;;-0.91;100.00
23677;BME280;31493;49.058;12.190;2023-03-11T06:44:50;94922.81;;;-0.80;100.00
23677;BME280;31493;49.058;12.190;2023-03-11T06:47:18;94926.31;;;-0.83;100.00
23677;BME280;31493;49.058;12.190;2023-03-11T06:49:45;94942.31;;;-0.81;100.00
23677;BME280;31493;49.058;12.190;2023-03-11T06:52:12;94931.88;;;-0.74;100.00
23677;BME280;31493;49.058;12.190;2023-03-11T06:54:39;94937.53;;;-0.68;100.00
23677;BME280;31493;49.058;12.190;2023-03-11T06:57:06;94932.41;;;-0.66;99.61
23677;BME280;31493;49.058;12.190;2023-03-11T06:59:34;94936.84;;;-0.51;100.00
23677;BME280;31493;49.058;12.190;2023-03-11T07:02:01;94926.53;;;-0.48;99.38
23677;BME280;31493;49.058;12.190;2023-03-11T07:04:36;94926.03;;;-0.36;99.50
23677;BME280;31493;49.058;12.190;2023-03-11T07:07:03;94928.13;;;-0.45;97.99
23677;BME280;31493;49.058;12.190;2023-03-11T07:09:30;94933.72;;;-0.58;97.08
23677;BME280;31493;49.058;12.190;2023-03-11T07:11:57;94933.53;;;-0.53;96.26
23677;BME280;31493;49.058;12.190;2023-03-11T07:14:24;94942.56;;;-0.46;98.23
23677;BME280;31493;49.058;12.190;2023-03-11T07:16:51;94951.06;;;-0.47;94.89
23677;BME280;31493;49.058;12.190;2023-03-11T07:19:18;94962.25;;;-0.31;97.11
23677;BME280;31493;49.058;12.190;2023-03-11T07:21:47;94970.09;;;-0.16;95.85
23677;BME280;31493;49.058;12.190;2023-03-11T07:24:14;94971.13;;;-0.20;94.74
23677;BME280;31493;49.058;12.190;2023-03-11T07:26:41;94968.75;;;-0.25;93.78
23677;BME280;31493;49.058;12.190;2023-03-11T07:29:08;94978.94;;;-0.05;95.37
23677;BME280;31493;49.058;12.190;2023-03-11T07:31:36;94975.47;;;-0.22;95.10
23677;BME280;31493;49.058;12.190;2023-03-11T07:34:04;94990.72;;;-0.22;94.82
23677;BME280;31493;49.058;12.190;2023-03-11T07:36:36;94991.06;;;-0.30;94.48
23677;BME280;31493;49.058;12.190;2023-03-11T07:39:06;94994.97;;;-0.23;95.54
23677;BME280;31493;49.058;12.190;2023-03-11T07:41:33;94988.19;;;-0.22;93.61
23677;BME280;31493;49.058;12.190;2023-03-11T07:44:03;95011.63;;;-0.16;92.88
23677;BME280;31493;49.058;12.190;2023-03-11T07:46:31;95001.03;;;-0.07;94.37
23677;BME280;31493;49.058;12.190;2023-03-11T07:48:59;94991.22;;;-0.14;92.96
23677;BME280;31493;49.058;12.190;2023-03-11T07:51:28;95011.75;;;0.02;93.87
23677;BME280;31493;49.058;12.190;2023-03-11T07:53:55;95011.47;;;0.08;93.91
23677;BME280;31493;49.058;12.190;2023-03-11T07:56:26;95003.00;;;0.07;93.28
23677;BME280;31493;49.058;12.190;2023-03-11T07:58:54;95000.13;;;0.15;92.94
23677;BME280;31493;49.058;12.190;2023-03-11T08:01:24;95016.81;;;0.02;91.41
23677;BME280;31493;49.058;12.190;2023-03-11T08:03:52;95017.50;;;0.05;92.40
23677;BME280;31493;49.058;12.190;2023-03-11T08:06:23;95029.91;;;0.13;93.13
23677;BME280;31493;49.058;12.190;2023-03-11T08:08:50;95022.84;;;0.19;92.48
23677;BME280;31493;49.058;12.190;2023-03-11T08:11:18;95032.13;;;0.20;91.91
23677;BME280;31493;49.058;12.190;2023-03-11T08:13:50;95043.19;;;0.19;90.34
23677;BME280;31493;49.058;12.190;2023-03-11T08:16:20;95038.94;;;-0.01;89.57
23677;BME280;31493;49.058;12.190;2023-03-11T08:18:49;95042.59;;;0.33;91.27
23677;BME280;31493;49.058;12.190;2023-03-11T08:21:17;95052.06;;;0.30;88.23
23677;BME280;31493;49.058;12.190;2023-03-11T08:23:45;95051.38;;;0.07;86.42
23677;BME280;31493;49.058;12.190;2023-03-11T08:26:15;95039.41;;;0.28;87.50
23677;BME280;31493;49.058;12.190;2023-03-11T08:28:43;95039.69;;;0.22;86.95
23677;BME280;31493;49.058;12.190;2023-03-11T08:31:13;95050.88;;;0.18;87.60
23677;BME280;31493;49.058;12.190;2023-03-11T08:33:41;95049.00;;;0.03;86.34
23677;BME280;31493;49.058;12.190;2023-03-11T08:36:08;95064.16;;;0.24;89.11
23677;BME280;31493;49.058;12.190;2023-03-11T08:38:36;95059.97;;;0.23;87.47
23677;BME280;31493;49.058;12.190;2023-03-11T08:41:03;95056.47;;;0.07;87.79
23677;BME280;31493;49.058;12.190;2023-03-11T08:43:31;95069.22;;;0.26;88.63
23677;BME280;31493;49.058;12.190;2023-03-11T08:45:59;95077.56;;;0.09;89.15
23677;BME280;31493;49.058;12.190;2023-03-11T08:48:27;95087.38;;;-0.02;90.20
23677;BME280;31493;49.058;12.190;2023-03-11T08:50:55;95099.00;;;-0.37;92.38
23677;BME280;31493;49.058;12.190;2023-03-11T08:53:22;95110.44;;;-0.47;95.28
23677;BME280;31493;49.058;12.190;2023-03-11T08:55:49;95111.75;;;-0.59;100.00
23677;BME280;31493;49.058;12.190;2023-03-11T08:58:17;95120.56;;;-0.90;100.00
23677;BME280;31493;49.058;12.190;2023-03-11T09:00:44;95118.78;;;-0.88;99.05
23677;BME280;31493;49.058;12.190;2023-03-11T09:03:17;95124.53;;;-0.83;96.46
23677;BME280;31493;49.058;12.190;2023-03-11T09:05:45;95129.13;;;-0.92;100.00
23677;BME280;31493;49.058;12.190;2023-03-11T09:08:12;95145.25;;;-0.93;100.00
23677;BME280;31493;49.058;12.190;2023-03-11T09:10:39;95136.13;;;-1.21;100.00
23677;BME280;31493;49.058;12.190;2023-03-11T09:13:06;95149.28;;;-1.33;100.00
23677;BME280;31493;49.058;12.190;2023-03-11T09:15:33;95142.53;;;-1.34;100.00
23677;BME280;31493;49.058;12.190;2023-03-11T09:18:01;95147.66;;;-1.36;100.00
23677;BME280;31493;49.058;12.190;2023-03-11T09:20:28;95157.38;;;-1.23;100.00
23677;BME280;31493;49.058;12.190;2023-03-11T09:22:56;95164.94;;;-1.45;100.00
23677;BME280;31493;49.058;12.190;2023-03-11T09:25:23;95155.03;;;-1.28;100.00
23677;BME280;31493;49.058;12.190;2023-03-11T09:27:50;95168.41;;;-1.24;100.00
23677;BME280;31493;49.058;12.190;2023-03-11T09:30:17;95173.13;;;-1.14;100.00
23677;BME280;31493;49.058;12.190;2023-03-11T09:32:44;95167.75;;;-1.29;100.00
23677;BME280;31493;49.058;12.190;2023-03-11T09:35:11;95175.75;;;-1.17;100.00
23677;BME280;31493;49.058;12.190;2023-03-11T09:37:39;95179.53;;;-1.03;100.00
23677;BME280;31493;49.058;12.190;2023-03-11T09:40:10;95181.47;;;-1.10;100.00
23677;BME280;31493;49.058;12.190;2023-03-11T09:42:43;95170.56;;;-1.14;100.00
23677;BME280;31493;49.058;12.190;2023-03-11T09:45:15;95179.41;;;-1.00;100.00
23677;BME280;31493;49.058;12.190;2023-03-11T09:47:52;95183.25;;;-0.90;100.00
23677;BME280;31493;49.058;12.190;2023-03-11T09:50:32;95179.53;;;-1.03;100.00
23677;BME280;31493;49.058;12.190;2023-03-11T09:53:09;95178.06;;;-1.11;100.00
23677;BME280;31493;49.058;12.190;2023-03-11T09:55:44;95180.06;;;-1.19;100.00
23677;BME280;31493;49.058;12.190;2023-03-11T09:58:17;95187.81;;;-1.22;100.00
23677;BME280;31493;49.058;12.190;2023-03-11T10:00:45;95179.69;;;-1.31;98.27
23677;BME280;31493;49.058;12.190;2023-03-11T10:03:30;95189.91;;;-1.10;98.67
23677;BME280;31493;49.058;12.190;2023-03-11T10:06:11;95192.59;;;-0.91;98.17
23677;BME280;31493;49.058;12.190;2023-03-11T10:08:42;95183.34;;;-1.15;98.42
23677;BME280;31493;49.058;12.190;2023-03-11T10:11:18;95193.50;;;-0.92;98.91
23677;BME280;31493;49.058;12.190;2023-03-11T10:13:55;95185.31;;;-1.00;97.67
23677;BME280;31493;49.058;12.190;2023-03-11T10:16:31;95189.94;;;-1.11;96.14
23677;BME280;31493;49.058;12.190;2023-03-11T10:19:08;95195.75;;;-0.84;97.92
23677;BME280;31493;49.058;12.190;2023-03-11T10:21:45;95201.25;;;-0.73;97.93
23677;BME280;31493;49.058;12.190;2023-03-11T10:24:32;95195.88;;;-0.65;96.57
23677;BME280;31493;49.058;12.190;2023-03-11T10:27:08;95187.44;;;-0.66;95.16
23677;BME280;31493;49.058;12.190;2023-03-11T10:29:43;95201.78;;;-0.65;94.25
23677;BME280;31493;49.058;12.190;2023-03-11T10:32:16;95205.00;;;-0.60;93.26
23677;BME280;31493;49.058;12.190;2023-03-11T10:34:48;95195.59;;;-0.36;94.52
23677;BME280;31493;49.058;12.190;2023-03-11T10:37:20;95186.53;;;0.61;100.00
23677;BME280;31493;49.058;12.190;2023-03-11T10:39:50;95187.50;;;0.17;94.09
23677;BME280;31493;49.058;12.190;2023-03-11T10:42:21;95178.25;;;0.76;97.20
23677;BME280;31493;49.058;12.190;2023-03-11T10:44:50;95179.78;;;0.60;93.24
23677;BME280;31493;49.058;12.190;2023-03-11T10:47:18;95195.09;;;0.39;90.66
23677;BME280;31493;49.058;12.190;2023-03-11T10:49:45;95201.81;;;0.61;91.16
23677;BME280;31493;49.058;12.190;2023-03-11T10:52:12;95190.34;;;0.71;92.94
23677;BME280;31493;49.058;12.190;2023-03-11T10:54:41;95192.06;;;0.70;89.65
23677;BME280;31493;49.058;12.190;2023-03-11T10:57:23;95203.75;;;0.56;90.69
23677;BME280;31493;49.058;12.190;2023-03-11T10:59:52;95206.84;;;1.01;91.60
23677;BME280;31493;49.058;12.190;2023-03-11T11:02:23;95198.81;;;1.29;92.54
23677;BME280;31493;49.058;12.190;2023-03-11T11:05:04;95183.53;;;1.28;90.58
23677;BME280;31493;49.058;12.190;2023-03-11T11:07:33;95190.03;;;1.16;89.80
23677;BME280;31493;49.058;12.190;2023-03-11T11:10:15;95182.44;;;1.15;91.88
23677;BME280;31493;49.058;12.190;2023-03-11T11:12:53;95181.81;;;1.47;90.18
23677;BME280;31493;49.058;12.190;2023-03-11T11:15:22;95175.81;;;1.48;87.01
23677;BME280;31493;49.058;12.190;2023-03-11T11:17:49;95185.88;;;2.05;88.81
23677;BME280;31493;49.058;12.190;2023-03-11T11:20:18;95176.00;;;2.16;89.08
23677;BME280;31493;49.058;12.190;2023-03-11T11:22:52;95178.06;;;2.08;84.26
23677;BME280;31493;49.058;12.190;2023-03-11T11:25:31;95177.53;;;1.67;85.71
23677;BME280;31493;49.058;12.190;2023-03-11T11:28:03;95181.00;;;1.28;82.32
23677;BME280;31493;49.058;12.190;2023-03-11T11:30:51;95182.78;;;0.88;84.96
23677;BME280;31493;49.058;12.190;2023-03-11T11:33:23;95199.19;;;0.43;88.42
23677;BME280;31493;49.058;12.190;2023-03-11T11:35:51;95194.13;;;0.21;87.51
23677;BME280;31493;49.058;12.190;2023-03-11T11:38:21;95192.09;;;0.30;87.34
23677;BME280;31493;49.058;12.190;2023-03-11T11:40:50;95183.81;;;0.04;85.37
23677;BME280;31493;49.058;12.190;2023-03-11T11:43:20;95202.53;;;0.03;85.81
23677;BME280;31493;49.058;12.190;2023-03-11T11:45:54;95205.56;;;-0.09;86.33
23677;BME280;31493;49.058;12.190;2023-03-11T11:48:26;95212.03;;;-0.22;87.78
23677;BME280;31493;49.058;12.190;2023-03-11T11:50:56;95205.72;;;-0.14;88.59
23677;BME280;31493;49.058;12.190;2023-03-11T11:53:29;95202.53;;;-0.19;89.31
23677;BME280;31493;49.058;12.190;2023-03-11T11:55:57;95216.25;;;-0.01;90.66
23677;BME280;31493;49.058;12.190;2023-03-11T11:58:26;95198.69;;;-0.07;88.68
23677;BME280;31493;49.058;12.190;2023-03-11T12:01:02;95200.94;;;0.01;87.64
23677;BME280;31493;49.058;12.190;2023-03-11T12:03:43;95208.50;;;0.02;87.50
23677;BME280;31493;49.058;12.190;2023-03-11T12:06:21;95207.75;;;0.00;87.46
23677;BME280;31493;49.058;12.190;2023-03-11T12:09:02;95201.69;;;0.03;87.03
23677;BME280;31493;49.058;12.190;2023-03-11T12:11:38;95206.78;;;0.03;87.04
23677;BME280;31493;49.058;12.190;2023-03-11T12:14:12;95195.78;;;0.22;89.05
23677;BME280;31493;49.058;12.190;2023-03-11T12:16:47;95204.78;;;0.31;88.52
23677;BME280;31493;49.058;12.190;2023-03-11T12:19:22;95199.69;;;0.31;88.19
23677;BME280;31493;49.058;12.190;2023-03-11T12:25:20;95190.41;;;0.49;87.05
23677;BME280;31493;49.058;12.190;2023-03-11T12:27:52;95204.66;;;0.73;87.14
23677;BME280;31493;49.058;12.190;2023-03-11T12:30:27;95198.13;;;0.68;85.16
23677;BME280;31493;49.058;12.190;2023-03-11T12:32:57;95185.47;;;0.85;84.49
23677;BME280;31493;49.058;12.190;2023-03-11T12:35:26;95198.44;;;0.99;84.46
23677;BME280;31493;49.058;12.190;2023-03-11T12:37:56;95199.06;;;1.04;80.13
23677;BME280;31493;49.058;12.190;2023-03-11T12:40:55;95198.19;;;1.24;81.62
23677;BME280;31493;49.058;12.190;2023-03-11T12:43:25;95181.38;;;1.56;80.83
23677;BME280;31493;49.058;12.190;2023-03-11T12:45:56;95196.06;;;1.51;79.29
23677;BME280;31493;49.058;12.190;2023-03-11T12:48:33;95193.25;;;1.39;78.28
23677;BME280;31493;49.058;12.190;2023-03-11T12:51:01;95193.53;;;1.32;77.43
23677;BME280;31493;49.058;12.190;2023-03-11T12:53:41;95206.84;;;1.01;77.37
23677;BME280;31493;49.058;12.190;2023-03-11T12:56:16;95194.63;;;0.89;76.43
23677;BME280;31493;49.058;12.190;2023-03-11T12:59:12;95204.09;;;1.06;74.70
23677;BME280;31493;49.058;12.190;2023-03-11T13:01:57;95198.72;;;0.93;73.97
23677;BME280;31493;49.058;12.190;2023-03-11T13:04:37;95193.47;;;0.96;75.59
23677;BME280;31493;49.058;12.190;2023-03-11T13:07:34;95198.13;;;0.68;75.38
23677;BME280;31493;49.058;12.190;2023-03-11T13:10:10;95198.13;;;0.68;75.84
23677;BME280;31493;49.058;12.190;2023-03-11T13:12:40;95199.63;;;0.72;75.04
23677;BME280;31493;49.058;12.190;2023-03-11T13:15:25;95208.00;;;0.94;76.42